Wise River, Montana
Current Conditions -  °F | °C
As of 1:53 AM on Friday 24 Oct 2014 (Local Time) from KBTM Reporting Station
Few Clouds Few Clouds  
Wind Chill: 42°   Ceiling: Unl
Heat Index: 44°   Visibility: 10mi
Dew Point: 38°   Wind: 5mph
Humidity: 79%   Direction: 40°NE
Pressure: 30.02"   Gusts: NA
Location:  45.79°N, 112.95°W
Report Text: KBTM 240753Z AUTO 04004KT 10SM FEW050 07/03 A3002 RMK AO2 SLP141 T00670033
Loading
Personal Weather Stations






























Interactive Weather Map
Tropical Storm Tracking
New forecast layout! Learn more

10-Day Weather Forecast

Advertisements
Track Severe Weather on mobile